createdAt,value
2019-03-18T00:01:52.934Z,33.50
2019-03-18T00:04:19.980Z,33.40
2019-03-18T00:06:47.035Z,33.50
2019-03-18T00:09:14.106Z,33.40
2019-03-18T00:11:41.237Z,33.30
2019-03-18T00:14:08.332Z,33.30
2019-03-18T00:16:35.400Z,33.30
2019-03-18T00:19:03.108Z,33.20
2019-03-18T00:21:30.191Z,33.20
2019-03-18T00:23:57.226Z,33.20
2019-03-18T00:26:24.302Z,33.10
2019-03-18T00:28:51.720Z,33.10
2019-03-18T00:31:18.865Z,33.10
2019-03-18T00:33:46.211Z,33.10
2019-03-18T00:36:13.312Z,33.10
2019-03-18T00:38:40.407Z,33.00
2019-03-18T00:41:07.509Z,32.90
2019-03-18T00:43:34.548Z,32.90
2019-03-18T00:46:01.695Z,32.90
2019-03-18T00:48:28.813Z,32.90
2019-03-18T00:50:55.888Z,32.80
2019-03-18T00:53:22.959Z,32.90
2019-03-18T00:55:51.819Z,32.80
2019-03-18T00:58:19.168Z,32.80
2019-03-18T01:00:46.220Z,32.70
2019-03-18T01:03:13.297Z,32.70
2019-03-18T01:05:40.345Z,32.70
2019-03-18T01:08:07.509Z,32.70
2019-03-18T01:10:34.561Z,32.60
2019-03-18T01:13:01.671Z,32.50
2019-03-18T01:15:28.908Z,32.50
2019-03-18T01:17:56.064Z,32.50
2019-03-18T01:20:23.109Z,32.40
2019-03-18T01:22:50.276Z,32.40
2019-03-18T01:25:17.319Z,32.40
2019-03-18T01:27:44.390Z,32.30
2019-03-18T01:30:11.464Z,32.20
2019-03-18T01:32:38.509Z,32.10
2019-03-18T01:35:05.550Z,32.20
2019-03-18T01:37:32.631Z,32.20
2019-03-18T01:39:59.738Z,32.80
2019-03-18T01:42:26.854Z,32.90
2019-03-18T01:44:53.902Z,32.10
2019-03-18T01:47:20.972Z,32.10
2019-03-18T01:49:48.023Z,32.10
2019-03-18T01:52:15.254Z,32.00
2019-03-18T01:54:42.308Z,32.00
2019-03-18T01:57:09.380Z,32.10
2019-03-18T01:59:36.426Z,32.10
2019-03-18T02:02:03.656Z,32.10
2019-03-18T02:04:30.712Z,32.10
2019-03-18T02:06:57.792Z,32.10
2019-03-18T02:09:24.829Z,32.00
2019-03-18T02:11:52.050Z,32.00
2019-03-18T02:14:19.088Z,32.00
2019-03-18T02:16:46.162Z,31.90
2019-03-18T02:19:13.224Z,31.90
2019-03-18T02:21:40.280Z,31.90
2019-03-18T02:24:07.351Z,31.90
2019-03-18T02:26:34.435Z,31.80
2019-03-18T02:29:01.470Z,31.90
2019-03-18T02:31:29.550Z,31.80
2019-03-18T02:33:56.662Z,31.80
2019-03-18T02:36:23.733Z,31.80
2019-03-18T02:38:50.790Z,31.80
2019-03-18T02:41:17.852Z,31.80
2019-03-18T02:43:45.107Z,31.80
2019-03-18T02:46:12.161Z,31.70
2019-03-18T02:48:39.229Z,31.70
2019-03-18T02:51:06.294Z,31.70
2019-03-18T02:53:33.500Z,31.70
2019-03-18T02:56:00.564Z,31.60
2019-03-18T02:58:27.652Z,31.60
2019-03-18T03:00:54.700Z,31.60
2019-03-18T03:03:21.746Z,31.60
2019-03-18T03:05:48.936Z,31.70
2019-03-18T03:08:16.013Z,31.50
2019-03-18T03:10:43.096Z,31.50
2019-03-18T03:13:10.119Z,31.50
2019-03-18T03:15:37.352Z,31.50
2019-03-18T03:18:04.400Z,31.50
2019-03-18T03:20:31.464Z,31.50
2019-03-18T03:22:58.512Z,31.50
2019-03-18T03:25:25.732Z,31.50
2019-03-18T03:27:52.818Z,31.40
2019-03-18T03:30:19.857Z,31.40
2019-03-18T03:32:46.901Z,31.40
2019-03-18T03:35:14.232Z,31.40
2019-03-18T03:37:41.534Z,31.30
2019-03-18T03:40:08.574Z,31.30
2019-03-18T03:42:35.608Z,31.10
2019-03-18T03:45:02.723Z,31.20
2019-03-18T03:47:29.771Z,31.10
2019-03-18T03:49:56.853Z,31.10
2019-03-18T03:52:23.899Z,31.10
2019-03-18T03:54:51.118Z,31.00
2019-03-18T03:57:18.201Z,31.00
2019-03-18T03:59:45.267Z,31.00
2019-03-18T04:02:12.680Z,31.00
2019-03-18T04:04:39.929Z,31.00
2019-03-18T04:07:06.991Z,30.90
2019-03-18T04:09:34.128Z,30.90
2019-03-18T04:12:01.280Z,30.90
2019-03-18T04:14:28.328Z,30.80
2019-03-18T04:17:01.672Z,30.70
2019-03-18T04:19:24.153Z,30.70
2019-03-18T04:21:51.312Z,30.80
2019-03-18T04:24:18.575Z,30.70
2019-03-18T04:26:45.634Z,30.80
2019-03-18T04:29:12.711Z,30.80
2019-03-18T04:31:39.770Z,30.80
2019-03-18T04:34:06.836Z,31.00
2019-03-18T04:36:33.888Z,30.90
2019-03-18T04:39:00.951Z,30.90
2019-03-18T04:41:27.994Z,30.90
2019-03-18T04:43:55.153Z,30.90
2019-03-18T04:46:22.236Z,30.90
2019-03-18T04:48:49.314Z,30.90
2019-03-18T04:51:16.392Z,30.90
2019-03-18T04:53:43.442Z,30.90
2019-03-18T04:56:10.593Z,30.90
2019-03-18T04:58:37.638Z,30.80
2019-03-18T05:01:04.724Z,31.10
2019-03-18T05:03:31.765Z,31.00
2019-03-18T05:05:58.988Z,31.00
2019-03-18T05:08:26.037Z,31.10
2019-03-18T05:10:53.106Z,31.10
2019-03-18T05:13:20.151Z,31.10
2019-03-18T05:15:47.382Z,31.00
2019-03-18T05:18:14.452Z,30.90
2019-03-18T05:20:41.526Z,30.80
2019-03-18T05:23:08.576Z,30.90
2019-03-18T05:25:35.777Z,30.90
2019-03-18T05:28:02.818Z,31.00
2019-03-18T05:30:29.892Z,30.90
2019-03-18T05:32:57.124Z,30.90
2019-03-18T05:35:24.207Z,30.90
2019-03-18T05:37:51.332Z,30.80
2019-03-18T05:40:18.378Z,30.90
2019-03-18T05:42:45.443Z,30.80
2019-03-18T05:45:12.611Z,30.80
2019-03-18T05:47:40.056Z,30.80
2019-03-18T05:50:07.393Z,30.80
2019-03-18T05:52:34.747Z,30.80
2019-03-18T05:55:01.789Z,30.80
2019-03-18T05:57:28.868Z,30.70
2019-03-18T05:59:55.926Z,30.70
2019-03-18T06:02:23.139Z,30.70
2019-03-18T06:04:51.941Z,30.70
2019-03-18T06:07:19.050Z,30.80
2019-03-18T06:09:46.172Z,30.70
2019-03-18T06:12:13.324Z,30.60
2019-03-18T06:14:40.653Z,30.60
2019-03-18T06:17:07.818Z,30.60
2019-03-18T06:19:35.025Z,30.60
2019-03-18T06:22:02.133Z,30.50
2019-03-18T06:24:29.437Z,30.30
2019-03-18T06:26:56.562Z,30.40
2019-03-18T06:29:28.077Z,30.40
2019-03-18T06:31:52.394Z,30.40
2019-03-18T06:34:20.024Z,30.40
2019-03-18T06:36:47.349Z,30.40
2019-03-18T06:39:14.391Z,30.50
2019-03-18T06:41:41.555Z,30.40
2019-03-18T06:44:08.721Z,30.50
2019-03-18T06:46:35.949Z,30.50
2019-03-18T06:49:03.042Z,30.50
2019-03-18T06:51:30.172Z,30.50
2019-03-18T06:53:57.556Z,30.40
2019-03-18T06:56:24.655Z,30.40
2019-03-18T06:58:51.876Z,30.50
2019-03-18T07:01:19.143Z,30.40
2019-03-18T07:03:46.675Z,30.40
2019-03-18T07:06:13.788Z,30.40
2019-03-18T07:08:40.941Z,30.30
2019-03-18T07:11:08.177Z,30.40
2019-03-18T07:13:35.426Z,30.40
2019-03-18T07:16:02.679Z,30.40
2019-03-18T07:18:29.887Z,30.50
2019-03-18T07:20:57.083Z,30.50
2019-03-18T07:23:32.135Z,30.50
2019-03-18T07:25:59.512Z,30.40
2019-03-18T07:28:29.427Z,30.40
2019-03-18T07:30:56.492Z,30.30
2019-03-18T07:36:12.392Z,30.30
2019-03-18T07:38:48.473Z,30.30
2019-03-18T07:41:15.577Z,30.30
2019-03-18T07:43:42.789Z,30.30
2019-03-18T07:46:10.160Z,30.30
2019-03-18T07:48:37.231Z,30.30
2019-03-18T07:51:04.445Z,30.30
2019-03-18T07:53:31.625Z,30.30
2019-03-18T07:55:58.657Z,30.30
2019-03-18T07:58:25.902Z,30.40
2019-03-18T08:00:53.111Z,30.30
2019-03-18T08:03:20.364Z,30.40
2019-03-18T08:05:47.477Z,30.40
2019-03-18T08:08:14.557Z,30.40
2019-03-18T08:10:41.652Z,30.40
2019-03-18T08:13:08.959Z,30.30
2019-03-18T08:15:36.001Z,30.30
2019-03-18T08:18:03.130Z,30.30
2019-03-18T08:20:30.760Z,30.30
2019-03-18T08:22:57.912Z,30.30
2019-03-18T08:25:25.016Z,30.30
2019-03-18T08:27:52.326Z,30.30
2019-03-18T08:30:19.477Z,30.30
2019-03-18T08:32:46.646Z,30.20
2019-03-18T08:35:14.471Z,30.20
2019-03-18T08:37:41.565Z,30.20
2019-03-18T08:40:10.720Z,30.20
2019-03-18T08:45:32.284Z,30.20
2019-03-18T08:48:01.118Z,30.20
2019-03-18T08:50:28.229Z,30.10
2019-03-18T08:52:55.252Z,30.10
2019-03-18T08:55:22.843Z,30.10
2019-03-18T08:57:49.951Z,30.10
2019-03-18T09:00:17.102Z,30.20
2019-03-18T09:02:44.277Z,30.20
2019-03-18T09:05:11.576Z,30.20
2019-03-18T09:07:38.842Z,30.20
2019-03-18T09:10:05.951Z,30.10
2019-03-18T09:12:33.138Z,30.10
2019-03-18T09:15:00.368Z,30.20
2019-03-18T09:17:27.426Z,30.10
2019-03-18T09:19:54.631Z,30.20
2019-03-18T09:22:22.102Z,30.20
2019-03-18T09:24:49.254Z,30.10
2019-03-18T09:27:16.299Z,30.20
2019-03-18T09:29:43.481Z,30.20
2019-03-18T09:32:11.207Z,30.90
2019-03-18T09:34:38.548Z,30.30
2019-03-18T09:37:07.365Z,30.20
2019-03-18T09:39:35.921Z,30.20
2019-03-18T09:42:03.098Z,30.10
2019-03-18T09:44:32.717Z,30.20
2019-03-18T09:47:03.126Z,30.20
2019-03-18T09:49:30.322Z,30.20
2019-03-18T09:51:59.376Z,30.20
2019-03-18T09:54:26.452Z,30.10
2019-03-18T09:56:53.921Z,30.10
2019-03-18T09:59:21.135Z,30.10
2019-03-18T10:04:24.409Z,30.10
2019-03-18T10:06:51.458Z,30.10
2019-03-18T10:09:20.661Z,30.10
2019-03-18T10:11:49.181Z,30.20
2019-03-18T10:14:16.363Z,30.10
2019-03-18T10:16:43.501Z,30.10
2019-03-18T10:19:10.665Z,30.00
2019-03-18T10:24:28.838Z,30.10
2019-03-18T10:26:56.124Z,30.10
2019-03-18T10:29:23.385Z,30.00
2019-03-18T10:31:50.464Z,30.00
2019-03-18T10:34:17.687Z,30.00
2019-03-18T10:36:54.156Z,30.10
2019-03-18T10:39:21.474Z,30.00
2019-03-18T10:41:48.650Z,30.00
2019-03-18T10:44:15.786Z,30.00
2019-03-18T10:46:45.480Z,30.00
2019-03-18T10:49:12.612Z,30.00
2019-03-18T10:51:39.796Z,30.00
2019-03-18T10:54:06.995Z,30.10
2019-03-18T10:56:34.107Z,30.10
2019-03-18T10:59:01.270Z,30.70
2019-03-18T11:01:28.414Z,30.20
2019-03-18T11:03:55.514Z,30.20
2019-03-18T11:06:22.746Z,30.20
2019-03-18T11:08:49.973Z,30.20
2019-03-18T11:11:18.557Z,30.20
2019-03-18T11:13:45.706Z,30.30
2019-03-18T11:16:12.748Z,30.40
2019-03-18T11:18:39.861Z,30.30
2019-03-18T11:21:07.057Z,30.40
2019-03-18T11:23:34.308Z,30.40
2019-03-18T11:26:01.724Z,30.40
2019-03-18T11:28:28.804Z,30.50
2019-03-18T11:33:49.865Z,30.40
2019-03-18T11:36:19.583Z,30.50
2019-03-18T11:38:46.086Z,30.60
2019-03-18T11:41:13.590Z,30.60
2019-03-18T11:43:40.813Z,30.80
2019-03-18T11:46:10.122Z,30.80
2019-03-18T11:48:37.219Z,31.00
2019-03-18T11:51:04.351Z,30.90
2019-03-18T11:53:31.555Z,30.60
2019-03-18T11:55:58.661Z,30.80
2019-03-18T11:58:25.753Z,31.10
2019-03-18T12:00:52.987Z,31.40
2019-03-18T12:03:20.455Z,31.60
2019-03-18T12:05:47.791Z,31.20
2019-03-18T12:08:22.111Z,31.00
2019-03-18T12:13:39.098Z,31.10
2019-03-18T12:16:06.206Z,31.30
2019-03-18T12:18:33.368Z,30.90
2019-03-18T12:21:00.700Z,31.70
2019-03-18T12:23:27.825Z,31.40
2019-03-18T12:25:55.079Z,31.10
2019-03-18T12:28:22.442Z,31.10
2019-03-18T12:30:49.651Z,31.00
2019-03-18T12:33:16.721Z,30.90
2019-03-18T12:35:47.080Z,31.30
2019-03-18T12:38:14.340Z,30.90
2019-03-18T12:40:41.518Z,31.00
2019-03-18T12:43:10.561Z,31.70
2019-03-18T12:45:42.521Z,31.20
2019-03-18T12:48:09.781Z,31.40
2019-03-18T12:53:25.609Z,31.10
2019-03-18T12:55:53.147Z,30.90
2019-03-18T12:58:22.175Z,31.00
2019-03-18T13:00:52.383Z,30.80
2019-03-18T13:03:19.734Z,30.80
2019-03-18T13:05:46.933Z,30.80
2019-03-18T13:08:14.030Z,30.80
2019-03-18T13:10:41.225Z,30.90
2019-03-18T13:13:08.387Z,30.80
2019-03-18T13:15:41.845Z,30.80
2019-03-18T13:18:07.332Z,30.80
2019-03-18T13:20:34.585Z,30.80
2019-03-18T13:23:01.790Z,30.90
2019-03-18T13:25:29.152Z,31.50
2019-03-18T13:28:00.797Z,30.90
2019-03-18T13:30:27.888Z,30.80
2019-03-18T13:32:55.019Z,30.80
2019-03-18T13:35:22.093Z,31.30
2019-03-18T13:37:49.222Z,30.70
2019-03-18T13:40:16.293Z,30.80
2019-03-18T13:42:43.437Z,30.70
2019-03-18T13:45:10.793Z,30.80
2019-03-18T13:47:37.877Z,30.80
2019-03-18T13:50:05.056Z,30.80
2019-03-18T13:52:32.224Z,31.00
2019-03-18T13:54:59.620Z,30.90
2019-03-18T13:57:26.761Z,30.90
2019-03-18T13:59:53.918Z,30.70
2019-03-18T14:02:21.611Z,30.90
2019-03-18T14:04:48.736Z,30.70
2019-03-18T14:07:15.828Z,30.90
2019-03-18T14:09:43.018Z,31.00
2019-03-18T14:12:10.179Z,30.80
2019-03-18T14:14:37.229Z,30.70
2019-03-18T14:17:04.348Z,30.90
2019-03-18T14:19:31.388Z,30.70
2019-03-18T14:21:58.557Z,30.60
2019-03-18T14:24:26.002Z,30.60
2019-03-18T14:27:01.241Z,30.70
2019-03-18T14:29:28.538Z,30.70
2019-03-18T14:31:55.762Z,30.60
2019-03-18T14:34:22.969Z,30.60
2019-03-18T14:36:51.861Z,30.70
2019-03-18T14:39:24.059Z,30.60
2019-03-18T14:41:47.749Z,30.60
2019-03-18T14:44:14.896Z,30.70
2019-03-18T14:46:41.952Z,30.60
2019-03-18T14:49:08.995Z,30.60
2019-03-18T14:51:45.374Z,30.60
2019-03-18T14:54:04.949Z,30.60
2019-03-18T14:56:32.110Z,30.50
2019-03-18T14:58:59.262Z,30.70
2019-03-18T15:01:26.354Z,30.50
2019-03-18T15:03:55.767Z,30.60
2019-03-18T15:06:23.007Z,30.50
2019-03-18T15:08:50.086Z,30.50
2019-03-18T15:11:17.181Z,30.60
2019-03-18T15:13:44.360Z,30.50
2019-03-18T15:16:11.440Z,30.60
2019-03-18T15:18:38.483Z,30.50
2019-03-18T15:21:05.678Z,30.50
2019-03-18T15:23:32.798Z,30.40
2019-03-18T15:26:05.063Z,30.50
2019-03-18T15:28:31.707Z,30.60
2019-03-18T15:31:01.567Z,30.70
2019-03-18T15:33:28.821Z,30.70
2019-03-18T15:35:55.994Z,30.70
2019-03-18T15:38:23.035Z,30.70
2019-03-18T15:40:53.136Z,30.60
2019-03-18T15:43:20.601Z,30.60
2019-03-18T15:45:47.674Z,30.60
2019-03-18T15:48:14.756Z,30.60
2019-03-18T15:50:41.860Z,30.60
2019-03-18T15:53:09.145Z,30.60
2019-03-18T15:55:36.257Z,30.60
2019-03-18T15:58:03.460Z,30.60
2019-03-18T16:00:30.598Z,30.60
2019-03-18T16:02:57.849Z,30.60
2019-03-18T16:05:25.393Z,30.70
2019-03-18T16:07:55.513Z,30.70
2019-03-18T16:10:22.601Z,30.70
2019-03-18T16:12:49.683Z,30.60
2019-03-18T16:15:16.731Z,30.60
2019-03-18T16:17:43.806Z,30.70
2019-03-18T16:20:11.200Z,30.70
2019-03-18T16:22:38.637Z,30.70
2019-03-18T16:25:05.891Z,30.70
2019-03-18T16:27:33.238Z,30.70
2019-03-18T16:30:00.376Z,30.70
2019-03-18T16:32:28.327Z,30.60
2019-03-18T16:35:06.164Z,30.70
2019-03-18T16:37:33.330Z,30.70
2019-03-18T16:40:00.505Z,30.70
2019-03-18T16:42:27.814Z,30.80
2019-03-18T16:44:55.236Z,30.60
2019-03-18T16:47:23.109Z,30.70
2019-03-18T16:49:50.316Z,30.70
2019-03-18T16:52:17.849Z,30.70
2019-03-18T16:54:44.928Z,30.70
2019-03-18T16:57:30.345Z,30.70
2019-03-18T16:59:57.424Z,30.70
2019-03-18T17:02:26.039Z,30.70
2019-03-18T17:04:53.344Z,30.70
2019-03-18T17:07:20.861Z,30.70
2019-03-18T17:09:47.960Z,30.70
2019-03-18T17:12:18.574Z,30.70
2019-03-18T17:14:45.730Z,30.60
2019-03-18T17:17:12.923Z,30.60
2019-03-18T17:19:43.055Z,30.60
2019-03-18T17:22:12.217Z,30.70
2019-03-18T17:24:41.639Z,30.60
2019-03-18T17:27:08.931Z,30.60
2019-03-18T17:29:43.044Z,30.60
2019-03-18T17:34:42.578Z,30.60
2019-03-18T17:37:09.659Z,30.60
2019-03-18T17:39:36.708Z,30.60
2019-03-18T17:42:03.836Z,30.60
2019-03-18T17:44:36.217Z,30.60
2019-03-18T17:47:07.227Z,30.70
2019-03-18T17:49:31.729Z,30.60
2019-03-18T17:52:00.006Z,30.70
2019-03-18T17:54:27.177Z,30.80
2019-03-18T17:57:06.462Z,30.70
2019-03-18T17:59:23.228Z,30.70
2019-03-18T18:01:50.267Z,30.70
2019-03-18T18:04:32.470Z,30.70
2019-03-18T18:06:58.295Z,30.70
2019-03-18T18:09:32.088Z,30.60
2019-03-18T18:11:59.514Z,30.60
2019-03-18T18:14:28.563Z,30.60
2019-03-18T18:16:55.736Z,30.60
2019-03-18T18:19:22.897Z,30.70
2019-03-18T18:21:58.271Z,30.90
2019-03-18T18:24:26.700Z,30.80
2019-03-18T18:26:56.899Z,30.80
2019-03-18T18:35:14.007Z,30.90
2019-03-18T18:37:41.287Z,30.90
2019-03-18T18:40:11.162Z,30.80
2019-03-18T18:42:38.221Z,30.80
2019-03-18T18:45:05.498Z,30.80
2019-03-18T18:47:35.688Z,30.70
2019-03-18T18:50:05.527Z,30.70
2019-03-18T18:52:32.604Z,30.70
2019-03-18T18:54:59.823Z,30.60
2019-03-18T18:57:27.044Z,30.60
2019-03-18T18:59:54.442Z,30.50
2019-03-18T19:02:22.567Z,30.60
2019-03-18T19:04:51.401Z,30.60
2019-03-18T19:07:18.544Z,30.60
2019-03-18T19:09:51.870Z,30.60
2019-03-18T19:12:32.632Z,30.50
2019-03-18T19:14:59.882Z,30.50
2019-03-18T19:17:28.108Z,30.50
2019-03-18T19:19:55.212Z,30.40
2019-03-18T19:22:31.994Z,30.40
2019-03-18T19:24:59.245Z,30.40
2019-03-18T19:27:26.382Z,30.40
2019-03-18T19:29:53.488Z,30.50
2019-03-18T19:32:22.238Z,30.30
2019-03-18T19:34:49.285Z,30.40
2019-03-18T19:37:16.532Z,30.30
2019-03-18T19:39:43.647Z,30.40
2019-03-18T19:42:12.801Z,30.40
2019-03-18T19:44:39.889Z,30.40
2019-03-18T19:47:07.054Z,30.30
2019-03-18T19:49:34.331Z,30.50
2019-03-18T19:52:01.925Z,30.50
2019-03-18T19:54:29.143Z,30.40
2019-03-18T19:56:56.400Z,31.10
2019-03-18T19:59:23.568Z,30.70
2019-03-18T20:01:50.643Z,30.50
2019-03-18T20:04:17.915Z,30.50
2019-03-18T20:06:45.100Z,30.70
2019-03-18T20:09:12.315Z,30.50
2019-03-18T20:11:40.233Z,30.40
2019-03-18T20:14:14.088Z,30.50
2019-03-18T20:16:38.111Z,30.50
2019-03-18T20:19:05.477Z,30.40
2019-03-18T20:21:32.747Z,30.40
2019-03-18T20:24:04.271Z,30.40
2019-03-18T20:26:30.583Z,30.40
2019-03-18T20:28:57.736Z,30.50
2019-03-18T20:31:26.712Z,30.40
2019-03-18T20:33:54.105Z,30.40
2019-03-18T20:36:26.851Z,30.40
2019-03-18T20:39:10.502Z,30.70
2019-03-18T20:44:11.979Z,30.70
2019-03-18T20:46:40.882Z,30.50
2019-03-18T20:49:13.379Z,30.60
2019-03-18T20:51:44.084Z,30.60
2019-03-18T20:54:12.321Z,30.70
2019-03-18T20:56:39.905Z,31.00
2019-03-18T20:59:06.987Z,30.70
2019-03-18T21:01:36.059Z,30.60
2019-03-18T21:06:52.148Z,30.50
2019-03-18T21:09:19.236Z,30.30
2019-03-18T21:11:48.830Z,30.30
2019-03-18T21:14:20.445Z,30.40
2019-03-18T21:16:47.730Z,30.30
2019-03-18T21:19:15.191Z,30.30
2019-03-18T21:21:42.548Z,30.30
2019-03-18T21:24:11.030Z,30.30
2019-03-18T21:26:38.178Z,30.30
2019-03-18T21:29:05.466Z,30.20
2019-03-18T21:31:32.579Z,30.20
2019-03-18T21:34:11.478Z,30.30
2019-03-18T21:36:38.814Z,30.20
2019-03-18T21:39:12.448Z,30.20
2019-03-18T21:41:54.099Z,30.10
2019-03-18T21:44:35.354Z,30.10
2019-03-18T21:47:02.452Z,30.10
2019-03-18T21:49:29.492Z,30.20
2019-03-18T21:51:56.751Z,30.20
2019-03-18T21:54:33.705Z,30.10
2019-03-18T21:56:52.536Z,30.30
2019-03-18T21:59:19.626Z,30.30
2019-03-18T22:01:46.699Z,30.20
2019-03-18T22:04:13.744Z,30.20
2019-03-18T22:06:40.823Z,30.30
2019-03-18T22:09:07.905Z,30.40
2019-03-18T22:11:34.958Z,30.30
2019-03-18T22:14:02.015Z,30.30
2019-03-18T22:16:29.268Z,30.20
2019-03-18T22:18:56.403Z,30.20
2019-03-18T22:21:23.446Z,30.20
2019-03-18T22:23:50.516Z,30.20
2019-03-18T22:26:17.698Z,30.20
2019-03-18T22:28:44.735Z,30.20
2019-03-18T22:31:11.819Z,30.10
2019-03-18T22:33:39.012Z,30.10
2019-03-18T22:36:06.195Z,30.20
2019-03-18T22:38:33.272Z,30.10
2019-03-18T22:41:00.423Z,30.00
2019-03-18T22:43:27.482Z,30.00
2019-03-18T22:45:54.620Z,30.10
2019-03-18T22:48:21.691Z,30.00
2019-03-18T22:50:48.820Z,30.00
2019-03-18T22:53:15.983Z,30.00
2019-03-18T22:55:43.258Z,30.00
2019-03-18T22:58:10.440Z,29.90
2019-03-18T23:00:37.481Z,30.00
